Time;durP1;ratioP1;P1;durP2;ratioP2;P2;SDS_P1;SDS_P2;PMS_P1;PMS_P2;Temp;Humidity;BMP_temperature;BMP_pressure;BME280_temperature;BME280_humidity;BME280_pressure;Samples;Min_cycle;Max_cycle;Signal;HPM_P1;HPM_P2
2022/01/05 00:04:43;;;;;;;8.55;2.17;;;4.10;99.90;;;;;;12476183;28;20468;-37
2022/01/05 00:10:44;;;;;;;8.30;2.50;;;4.10;99.90;;;;;;12467960;28;20049;-37
2022/01/05 00:16:47;;;;;;;13.68;2.47;;;4.00;99.90;;;;;;12465033;28;20149;-36
2022/01/05 00:22:48;;;;;;;15.50;4.65;;;4.10;99.90;;;;;;12464168;28;20501;-39
2022/01/05 00:28:51;;;;;;;11.80;1.90;;;4.10;99.90;;;;;;12461336;28;20049;-37
2022/01/05 00:34:53;;;;;;;10.38;2.10;;;4.00;99.90;;;;;;12464888;28;20045;-38
2022/01/05 00:40:55;;;;;;;8.02;1.77;;;4.00;99.90;;;;;;12463711;28;20148;-39
2022/01/05 00:46:57;;;;;;;10.35;1.85;;;4.00;99.90;;;;;;12464498;28;20847;-38
2022/01/05 00:53:00;;;;;;;8.85;1.80;;;4.00;99.90;;;;;;12464244;28;20519;-36
2022/01/05 00:59:03;;;;;;;10.10;2.10;;;4.00;99.90;;;;;;12458956;28;20081;-37
2022/01/05 01:05:05;;;;;;;10.75;2.03;;;4.00;99.90;;;;;;12462104;28;20665;-36
2022/01/05 01:11:07;;;;;;;9.25;2.05;;;3.80;99.90;;;;;;12463630;28;20046;-37
2022/01/05 01:17:09;;;;;;;7.97;1.83;;;3.90;99.90;;;;;;12463158;28;20541;-38
2022/01/05 01:23:11;;;;;;;21.00;3.47;;;3.80;99.90;;;;;;12464867;28;20091;-38
2022/01/05 01:29:13;;;;;;;8.00;2.17;;;3.80;99.90;;;;;;12459344;28;20049;-38
2022/01/05 01:35:15;;;;;;;11.75;2.05;;;3.80;99.90;;;;;;12463047;28;20168;-41
2022/01/05 01:41:17;;;;;;;8.98;2.05;;;3.70;99.90;;;;;;12462502;28;20488;-38
2022/01/05 01:47:19;;;;;;;9.10;2.13;;;3.70;99.90;;;;;;12460812;28;20458;-39
2022/01/05 01:53:21;;;;;;;14.82;2.25;;;3.60;99.90;;;;;;12457214;28;20103;-39
2022/01/05 01:59:23;;;;;;;9.23;2.00;;;3.50;99.90;;;;;;12463180;28;20137;-39
2022/01/05 02:05:25;;;;;;;9.45;2.13;;;3.70;99.90;;;;;;12460584;28;20065;-37
2022/01/05 02:11:27;;;;;;;14.90;1.80;;;3.50;99.90;;;;;;12457861;28;20046;-37
2022/01/05 02:17:49;;;;;;;11.40;2.85;;;3.50;99.90;;;;;;12460663;28;20057;-37
2022/01/05 02:23:51;;;;;;;11.63;1.85;;;3.40;99.90;;;;;;12458380;28;20069;-37
2022/01/05 02:29:53;;;;;;;7.90;2.08;;;3.40;99.90;;;;;;12461679;28;20489;-37
2022/01/05 02:35:55;;;;;;;7.05;1.23;;;3.30;99.90;;;;;;12457770;28;20080;-36
2022/01/05 02:41:57;;;;;;;9.25;2.00;;;3.40;99.90;;;;;;12459214;28;20141;-36
2022/01/05 02:47:59;;;;;;;12.43;1.65;;;3.40;99.90;;;;;;12460304;28;20751;-38
2022/01/05 02:54:02;;;;;;;5.57;1.45;;;3.40;99.90;;;;;;12463951;28;20053;-37
2022/01/05 03:00:10;;;;;;;7.70;1.40;;;3.30;99.90;;;;;;12469474;28;20599;-39
2022/01/05 03:06:12;;;;;;;6.30;1.48;;;3.10;99.90;;;;;;12468494;28;20049;-39
2022/01/05 03:12:14;;;;;;;13.52;1.88;;;3.10;99.90;;;;;;12467303;28;20073;-36
2022/01/05 03:18:16;;;;;;;16.75;1.42;;;3.20;99.90;;;;;;12469455;28;20069;-36
2022/01/05 03:24:18;;;;;;;13.43;2.25;;;3.10;99.90;;;;;;12468449;28;20132;-41
2022/01/05 03:30:26;;;;;;;10.50;2.00;;;2.90;99.90;;;;;;12450109;28;20052;-36
2022/01/05 03:36:28;;;;;;;7.82;1.70;;;2.80;99.90;;;;;;12468482;28;20053;-37
2022/01/05 03:42:30;;;;;;;15.32;1.70;;;2.70;99.90;;;;;;12466743;28;20049;-37
2022/01/05 03:48:31;;;;;;;7.93;1.60;;;2.70;99.90;;;;;;12467785;28;20413;-36
2022/01/05 03:54:35;;;;;;;8.63;1.60;;;2.70;99.90;;;;;;12467138;28;20735;-36
2022/01/05 04:00:50;;;;;;;8.63;1.60;;;2.70;99.90;;;;;;12467065;28;20527;-38
2022/01/05 04:06:52;;;;;;;11.27;1.50;;;2.60;99.90;;;;;;12465051;28;20046;-38
2022/01/05 04:12:54;;;;;;;13.27;1.75;;;2.60;99.90;;;;;;12468136;28;20480;-36
2022/01/05 04:18:56;;;;;;;11.05;1.60;;;2.50;99.90;;;;;;12465942;28;20136;-38
2022/01/05 04:24:58;;;;;;;9.05;1.52;;;2.50;99.90;;;;;;12463718;28;20044;-38
2022/01/05 04:31:00;;;;;;;12.93;1.98;;;2.50;99.90;;;;;;12463732;28;20057;-37
2022/01/05 04:37:03;;;;;;;16.92;1.80;;;2.50;99.90;;;;;;12464583;28;20053;-36
2022/01/05 04:43:05;;;;;;;14.43;1.58;;;2.60;99.90;;;;;;12463456;28;20053;-39
2022/01/05 04:49:06;;;;;;;4.97;1.40;;;2.40;99.90;;;;;;12466423;28;20473;-36
2022/01/05 04:55:10;;;;;;;9.82;1.50;;;2.50;99.90;;;;;;12462649;28;20052;-36
2022/01/05 05:01:12;;;;;;;17.15;2.20;;;2.50;99.90;;;;;;12462697;28;20063;-37
2022/01/05 05:07:14;;;;;;;10.95;2.45;;;2.40;99.90;;;;;;12463973;28;20041;-36
2022/01/05 05:13:16;;;;;;;10.52;1.90;;;2.40;99.90;;;;;;12463664;28;20499;-36
2022/01/05 05:19:18;;;;;;;11.65;2.13;;;2.40;99.90;;;;;;12463928;28;20155;-38
2022/01/05 05:25:20;;;;;;;13.00;1.90;;;2.20;99.90;;;;;;12462146;28;20049;-37
2022/01/05 05:31:23;;;;;;;8.45;1.60;;;2.10;99.90;;;;;;12462811;28;20037;-39
2022/01/05 05:37:25;;;;;;;7.05;1.67;;;2.20;99.90;;;;;;12463148;28;20084;-39
2022/01/05 05:43:27;;;;;;;11.35;1.65;;;2.20;99.90;;;;;;12462270;28;20045;-38
2022/01/05 05:49:29;;;;;;;12.55;2.22;;;2.20;99.90;;;;;;12464905;28;20045;-38
2022/01/05 05:55:31;;;;;;;8.57;1.70;;;2.10;99.90;;;;;;12456766;28;20057;-36
2022/01/05 06:01:33;;;;;;;16.75;2.42;;;2.20;99.90;;;;;;12460771;28;20056;-36
2022/01/05 06:07:35;;;;;;;21.10;2.83;;;2.20;99.90;;;;;;12462379;28;20062;-36
2022/01/05 06:13:37;;;;;;;10.32;2.28;;;2.20;99.90;;;;;;12462557;28;20865;-36
2022/01/05 06:19:39;;;;;;;23.75;3.42;;;2.20;99.90;;;;;;12461972;28;20053;-36
2022/01/05 06:25:42;;;;;;;18.83;3.53;;;2.20;99.90;;;;;;12459770;28;20612;-39
2022/01/05 06:31:43;;;;;;;13.23;2.47;;;2.20;99.90;;;;;;12470068;28;20132;-38
2022/01/05 06:37:45;;;;;;;13.85;2.60;;;2.20;99.90;;;;;;12469906;28;20053;-38
2022/01/05 06:43:47;;;;;;;14.35;3.30;;;2.20;99.90;;;;;;12470523;28;20073;-36
2022/01/05 06:49:50;;;;;;;15.23;2.17;;;2.20;99.90;;;;;;12471472;28;20531;-38
2022/01/05 06:55:51;;;;;;;7.25;1.88;;;2.20;99.90;;;;;;12467465;28;20049;-38
2022/01/05 07:01:53;;;;;;;12.77;2.17;;;2.10;99.90;;;;;;12466772;28;20524;-36
2022/01/05 07:07:56;;;;;;;13.18;2.40;;;2.20;99.90;;;;;;12468020;28;20607;-35
2022/01/05 07:13:58;;;;;;;9.15;2.20;;;2.10;99.90;;;;;;12467766;28;20077;-36
2022/01/05 07:20:02;;;;;;;12.55;2.97;;;2.20;99.90;;;;;;12469151;28;20057;-37
2022/01/05 07:26:04;;;;;;;7.57;1.70;;;2.20;99.90;;;;;;12466309;28;20053;-38
2022/01/05 07:32:07;;;;;;;12.75;3.17;;;2.20;99.90;;;;;;12469086;28;20049;-35
2022/01/05 07:38:09;;;;;;;13.15;2.47;;;2.20;99.90;;;;;;12466466;28;20085;-38
2022/01/05 07:44:11;;;;;;;12.57;2.20;;;2.20;99.90;;;;;;12464776;28;20289;-38
2022/01/05 07:50:16;;;;;;;10.50;2.20;;;2.30;99.90;;;;;;12465014;28;20060;-37
2022/01/05 07:56:17;;;;;;;;;;;2.40;99.90;;;;;;12468435;28;20137;-36
2022/01/05 08:02:20;;;;;;;12.32;2.33;;;2.30;99.90;;;;;;12468793;28;20024;-36
2022/01/05 08:08:22;;;;;;;12.25;2.30;;;2.40;99.90;;;;;;12467927;28;20102;-38
2022/01/05 08:14:24;;;;;;;10.60;2.22;;;2.40;99.90;;;;;;12466137;28;20682;-36
2022/01/05 08:20:26;;;;;;;9.60;2.80;;;2.50;99.90;;;;;;12464213;28;20084;-36
2022/01/05 08:26:28;;;;;;;12.90;2.47;;;2.60;99.90;;;;;;12466449;28;20045;-39
2022/01/05 08:32:31;;;;;;;12.82;2.70;;;2.70;99.90;;;;;;12462261;28;20075;-38
2022/01/05 08:38:35;;;;;;;9.03;2.63;;;2.70;99.90;;;;;;12464078;28;20528;-36
2022/01/05 08:44:37;;;;;;;14.40;3.50;;;2.70;99.90;;;;;;12463220;28;20152;-38
2022/01/05 08:50:40;;;;;;;15.30;3.33;;;2.80;99.90;;;;;;12462348;28;20506;-36
2022/01/05 08:56:42;;;;;;;10.63;3.25;;;2.70;99.90;;;;;;12463899;28;20049;-38
2022/01/05 09:02:45;;;;;;;15.82;4.05;;;2.80;99.90;;;;;;12463413;28;20122;-36
2022/01/05 09:08:48;;;;;;;18.52;4.35;;;2.70;99.90;;;;;;12461276;28;20060;-38
2022/01/05 09:14:54;;;;;;;13.52;4.70;;;2.60;99.90;;;;;;12459916;28;20088;-36
2022/01/05 09:20:56;;;;;;;17.42;5.38;;;2.70;99.90;;;;;;12463790;28;20055;-37
2022/01/05 09:27:03;;;;;;;17.25;5.40;;;2.70;99.90;;;;;;12464546;28;20076;-36
2022/01/05 09:33:05;;;;;;;13.90;6.20;;;2.40;99.90;;;;;;12464726;28;20045;-36
2022/01/05 09:45:36;;;;;;;20.98;8.52;;;1.50;99.90;;;;;;12463469;28;20080;-38
2022/01/05 09:51:41;;;;;;;15.07;9.32;;;1.40;99.90;;;;;;12462801;28;20053;-36
2022/01/05 09:57:46;;;;;;;21.23;10.60;;;1.50;99.90;;;;;;12464760;28;20054;-38
2022/01/05 10:03:52;;;;;;;16.10;10.85;;;1.60;99.90;;;;;;12464780;28;20072;-36
2022/01/05 10:09:54;;;;;;;20.50;11.35;;;1.60;99.90;;;;;;12467907;28;20125;-38
2022/01/05 10:15:56;;;;;;;20.50;11.48;;;1.80;99.90;;;;;;12469929;28;20049;-37
2022/01/05 10:21:59;;;;;;;22.02;13.00;;;1.80;99.90;;;;;;12457833;28;20049;-36
2022/01/05 10:28:03;;;;;;;28.90;13.87;;;1.90;99.90;;;;;;12469506;28;20813;-38
2022/01/05 10:34:24;;;;;;;23.42;13.30;;;2.00;99.90;;;;;;12467774;28;20049;-38
2022/01/05 10:40:27;;;;;;;15.63;11.88;;;2.00;99.90;;;;;;12471560;28;20429;-38
2022/01/05 10:46:33;;;;;;;17.23;11.90;;;1.70;99.90;;;;;;12471824;28;20057;-36
2022/01/05 10:52:35;;;;;;;20.00;13.40;;;1.40;99.90;;;;;;12472202;28;20052;-38
2022/01/05 10:58:43;;;;;;;23.63;12.93;;;1.40;99.90;;;;;;12472035;28;20140;-36
2022/01/05 11:04:45;;;;;;;21.10;12.65;;;1.60;99.90;;;;;;12466247;28;20041;-38
2022/01/05 11:10:47;;;;;;;21.25;12.65;;;1.60;99.90;;;;;;12467491;28;20521;-38
2022/01/05 11:16:51;;;;;;;19.92;10.40;;;1.60;99.90;;;;;;12469792;28;20053;-38
2022/01/05 11:22:54;;;;;;;15.95;9.93;;;1.70;99.90;;;;;;12470124;28;20425;-38
2022/01/05 11:28:56;;;;;;;12.38;7.78;;;1.90;99.90;;;;;;12468676;28;20558;-35
2022/01/05 11:34:58;;;;;;;14.25;5.50;;;2.00;99.90;;;;;;12468718;28;20876;-38
2022/01/05 11:41:00;;;;;;;9.75;4.72;;;2.10;99.90;;;;;;12467694;28;20084;-36
2022/01/05 11:47:21;;;;;;;7.13;3.30;;;2.20;99.90;;;;;;12467398;28;20643;-36
2022/01/05 11:53:43;;;;;;;8.35;3.20;;;2.20;99.90;;;;;;12467714;28;20087;-38
2022/01/05 11:59:45;;;;;;;5.65;3.13;;;2.30;99.90;;;;;;12467380;28;20064;-37
2022/01/05 12:06:04;;;;;;;5.60;2.60;;;2.40;99.90;;;;;;12464762;28;20049;-36
2022/01/05 12:12:29;;;;;;;4.10;2.10;;;2.60;99.90;;;;;;12464208;28;20067;-36
2022/01/05 12:18:35;;;;;;;3.13;1.70;;;2.60;99.90;;;;;;12466371;28;20128;-36
2022/01/05 12:25:00;;;;;;;5.82;2.10;;;2.60;99.90;;;;;;12464478;28;20056;-36
2022/01/05 12:31:03;;;;;;;7.45;2.10;;;2.70;99.90;;;;;;12462097;28;20524;-36
2022/01/05 12:37:43;;;;;;;4.68;2.25;;;2.70;99.90;;;;;;12463250;28;20053;-40
2022/01/05 12:43:45;;;;;;;7.22;2.63;;;2.70;99.90;;;;;;12461197;28;20073;-38
2022/01/05 12:49:48;;;;;;;4.97;2.80;;;2.90;99.90;;;;;;12462594;28;20171;-36
2022/01/05 12:55:51;;;;;;;7.72;2.95;;;2.90;99.90;;;;;;12463387;28;20582;-36
2022/01/05 13:01:58;;;;;;;4.18;2.38;;;3.00;99.90;;;;;;12461179;28;20099;-36
2022/01/05 13:08:06;;;;;;;6.30;2.72;;;3.10;99.90;;;;;;12462492;28;20734;-36
2022/01/05 13:14:14;;;;;;;9.32;2.83;;;3.20;99.90;;;;;;12459160;28;20083;-36
2022/01/05 13:20:18;;;;;;;6.43;2.28;;;3.40;99.90;;;;;;12460011;28;20413;-36
2022/01/05 13:26:20;;;;;;;10.30;2.42;;;3.50;99.90;;;;;;12456916;28;20042;-36
2022/01/05 13:32:24;;;;;;;9.88;2.20;;;3.60;99.90;;;;;;12460354;28;20041;-38
2022/01/05 13:38:26;;;;;;;7.60;2.08;;;3.70;99.90;;;;;;12456382;28;20051;-38
2022/01/05 13:44:29;;;;;;;7.07;2.38;;;3.70;99.90;;;;;;12458290;28;20088;-39
2022/01/05 13:50:36;;;;;;;10.82;2.78;;;3.70;99.90;;;;;;12459923;28;20849;-36
2022/01/05 13:56:40;;;;;;;3.58;2.10;;;3.60;99.90;;;;;;12462445;28;20049;-36
2022/01/05 14:02:42;;;;;;;8.17;2.60;;;3.60;99.90;;;;;;12459686;28;20057;-38
2022/01/05 14:08:44;;;;;;;8.13;2.70;;;3.60;99.90;;;;;;12459667;28;20308;-37
2022/01/05 14:14:59;;;;;;;7.18;2.72;;;3.60;99.90;;;;;;12457730;28;20610;-36
2022/01/05 14:21:01;;;;;;;13.68;3.72;;;3.60;99.90;;;;;;12460663;28;20615;-36
2022/01/05 14:27:05;;;;;;;8.48;2.70;;;3.60;99.90;;;;;;12459790;28;20079;-36
2022/01/05 14:33:07;;;;;;;10.90;3.00;;;3.60;99.90;;;;;;12458119;28;20050;-37
2022/01/05 14:39:17;;;;;;;10.02;3.22;;;3.60;99.90;;;;;;12461111;28;20591;-36
2022/01/05 14:45:21;;;;;;;9.48;2.70;;;3.60;99.90;;;;;;12457898;28;20088;-36
2022/01/05 14:51:23;;;;;;;8.57;2.40;;;3.60;99.90;;;;;;12465470;28;20414;-39
2022/01/05 14:57:25;;;;;;;8.55;2.72;;;3.60;99.90;;;;;;12467270;28;20092;-38
2022/01/05 15:03:27;;;;;;;10.20;3.30;;;3.60;99.90;;;;;;12463500;28;20081;-36
2022/01/05 15:09:29;;;;;;;17.52;3.55;;;3.70;99.90;;;;;;12463477;28;20073;-39
2022/01/05 15:15:30;;;;;;;10.70;3.22;;;3.80;99.90;;;;;;12468793;28;20459;-36
2022/01/05 15:21:33;;;;;;;11.73;4.07;;;3.80;99.90;;;;;;12467905;28;20058;-39
2022/01/05 15:27:35;;;;;;;17.05;4.45;;;3.90;99.90;;;;;;12466055;28;20061;-36
2022/01/05 15:33:39;;;;;;;11.93;3.20;;;3.90;99.90;;;;;;12464849;28;20102;-36
2022/01/05 15:39:41;;;;;;;12.00;2.95;;;4.10;99.90;;;;;;12467115;28;20140;-37
2022/01/05 15:45:43;;;;;;;6.95;2.60;;;4.30;99.90;;;;;;12463692;28;20045;-39
2022/01/05 15:51:46;;;;;;;9.13;2.15;;;4.50;99.90;;;;;;12465044;28;20132;-39
2022/01/05 16:03:57;;;;;;;9.40;2.47;;;4.40;99.90;;;;;;12464276;28;20145;-37
2022/01/05 16:09:59;;;;;;;13.05;3.17;;;4.60;99.90;;;;;;12462530;28;20046;-36
2022/01/05 16:16:01;;;;;;;12.52;2.33;;;4.60;99.90;;;;;;12464306;28;20454;-37
2022/01/05 16:22:03;;;;;;;8.57;1.80;;;4.70;99.90;;;;;;12454729;28;20053;-39
2022/01/05 16:28:06;;;;;;;11.10;2.10;;;4.80;99.90;;;;;;12464487;28;20133;-38
2022/01/05 16:34:08;;;;;;;14.27;1.90;;;4.90;99.90;;;;;;12457961;28;20041;-37
2022/01/05 16:40:10;;;;;;;14.52;2.55;;;4.90;99.90;;;;;;12462186;28;20083;-36
2022/01/05 16:46:16;;;;;;;19.50;2.88;;;5.00;99.90;;;;;;12462339;28;20052;-37
2022/01/05 16:52:24;;;;;;;8.00;1.80;;;5.00;99.90;;;;;;12463555;28;20542;-37
2022/01/05 17:04:46;;;;;;;14.35;2.70;;;5.00;99.90;;;;;;12463337;28;20498;-39
2022/01/05 17:10:48;;;;;;;10.88;1.88;;;5.10;99.90;;;;;;12461147;28;20391;-36
2022/01/05 17:16:50;;;;;;;8.48;2.20;;;5.10;99.90;;;;;;12457952;28;20055;-39
2022/01/05 17:22:55;;;;;;;14.20;2.17;;;5.10;99.90;;;;;;12459822;28;20049;-38
2022/01/05 17:28:58;;;;;;;8.77;1.50;;;5.10;99.90;;;;;;12462903;28;20080;-36
2022/01/05 17:35:01;;;;;;;9.60;1.67;;;5.10;99.90;;;;;;12460321;28;20046;-37
2022/01/05 17:41:03;;;;;;;7.65;1.30;;;5.00;99.90;;;;;;12459232;28;20176;-37
2022/01/05 17:47:06;;;;;;;9.20;1.42;;;5.00;99.90;;;;;;12460860;28;20045;-37
2022/01/05 17:53:08;;;;;;;11.48;2.33;;;5.00;99.90;;;;;;12459987;28;20084;-39
2022/01/05 17:59:11;;;;;;;15.32;1.98;;;4.90;99.90;;;;;;12461213;28;20106;-37
2022/01/05 18:05:13;;;;;;;12.73;2.00;;;4.90;99.90;;;;;;12457331;28;20128;-38
2022/01/05 18:11:14;;;;;;;10.43;2.08;;;5.00;99.90;;;;;;12461104;28;20056;-40
2022/01/05 18:17:16;;;;;;;12.70;2.92;;;5.00;99.90;;;;;;12461347;28;20164;-38
2022/01/05 18:23:18;;;;;;;19.35;2.75;;;5.00;99.90;;;;;;12446195;28;20107;-36
2022/01/05 18:29:20;;;;;;;13.45;2.30;;;5.10;99.90;;;;;;12470674;28;20041;-38
2022/01/05 18:35:22;;;;;;;16.98;2.92;;;5.10;99.90;;;;;;12468427;28;20049;-37
2022/01/05 18:41:25;;;;;;;13.38;2.67;;;5.10;99.90;;;;;;12470257;28;20053;-38
2022/01/05 18:47:28;;;;;;;16.67;2.58;;;5.10;99.90;;;;;;12470631;28;20045;-37
2022/01/05 18:53:31;;;;;;;15.13;2.30;;;5.10;99.90;;;;;;12468891;28;20128;-38
2022/01/05 18:59:33;;;;;;;12.60;2.13;;;5.10;99.90;;;;;;12466763;28;20536;-39
2022/01/05 19:05:36;;;;;;;17.15;3.05;;;5.10;99.90;;;;;;12466237;28;20068;-39
2022/01/05 19:11:38;;;;;;;15.02;2.40;;;5.00;99.90;;;;;;12467870;28;20108;-37
2022/01/05 19:17:41;;;;;;;12.13;2.30;;;4.90;99.90;;;;;;12469129;28;20145;-39
2022/01/05 19:23:44;;;;;;;12.05;1.80;;;4.90;99.90;;;;;;12469354;28;20061;-38
2022/01/05 19:29:46;;;;;;;13.57;2.40;;;4.90;99.90;;;;;;12466625;28;20133;-37
2022/01/05 19:35:49;;;;;;;19.92;3.08;;;4.80;99.90;;;;;;12464450;28;20176;-39
2022/01/05 19:41:51;;;;;;;23.17;2.80;;;4.80;99.90;;;;;;12467534;28;20991;-37
2022/01/05 19:47:53;;;;;;;17.70;2.92;;;4.80;99.90;;;;;;12466437;28;20901;-41
2022/01/05 19:53:58;;;;;;;15.63;2.50;;;4.70;99.90;;;;;;12466738;28;20140;-39
2022/01/05 20:00:00;;;;;;;14.48;2.10;;;4.60;99.90;;;;;;12466068;28;20137;-37
2022/01/05 20:06:03;;;;;;;22.27;2.55;;;4.60;99.90;;;;;;12462215;28;20110;-39
2022/01/05 20:12:06;;;;;;;18.40;2.60;;;4.70;99.90;;;;;;12459214;28;20107;-37
2022/01/05 20:18:08;;;;;;;16.50;2.58;;;4.70;99.90;;;;;;12461489;28;20057;-37
2022/01/05 20:24:12;;;;;;;23.25;3.33;;;4.60;99.90;;;;;;12459693;28;20165;-37
2022/01/05 20:30:15;;;;;;;25.13;3.63;;;4.60;99.90;;;;;;12460545;28;20235;-39
2022/01/05 20:36:21;;;;;;;16.25;3.30;;;4.50;99.90;;;;;;12465484;28;20079;-40
2022/01/05 20:42:23;;;;;;;29.85;4.82;;;4.50;99.90;;;;;;12463557;28;20152;-36
2022/01/05 20:48:25;;;;;;;16.13;2.45;;;4.50;99.90;;;;;;12465222;28;20493;-38
2022/01/05 20:54:27;;;;;;;24.67;3.50;;;4.60;99.90;;;;;;12462279;28;20828;-37
2022/01/05 21:00:31;;;;;;;17.85;2.97;;;4.50;99.90;;;;;;12462348;28;20076;-36
2022/01/05 21:06:33;;;;;;;11.90;2.00;;;4.50;99.90;;;;;;12463658;28;20052;-36
2022/01/05 21:12:35;;;;;;;17.52;2.42;;;4.40;99.90;;;;;;12462535;28;20050;-38
2022/01/05 21:18:42;;;;;;;16.73;2.10;;;4.30;99.90;;;;;;12462618;28;20144;-48
2022/01/05 21:24:44;;;;;;;19.42;2.60;;;4.30;99.90;;;;;;12459477;28;20091;-36
2022/01/05 21:30:47;;;;;;;15.95;2.50;;;4.20;99.90;;;;;;12460927;28;20049;-38
2022/01/05 21:36:50;;;;;;;22.05;2.65;;;4.30;99.90;;;;;;12462557;28;20057;-37
2022/01/05 21:42:53;;;;;;;19.73;2.85;;;4.30;99.90;;;;;;12461686;28;20077;-36
2022/01/05 21:48:54;;;;;;;13.63;2.38;;;4.40;99.90;;;;;;12465138;28;20553;-38
2022/01/05 21:54:56;;;;;;;17.02;2.63;;;4.40;99.90;;;;;;12460291;28;20551;-37
2022/01/05 22:00:59;;;;;;;17.42;2.55;;;4.30;99.90;;;;;;12465838;28;20133;-38
2022/01/05 22:07:02;;;;;;;19.58;2.78;;;4.30;99.90;;;;;;12472428;28;20037;-37
2022/01/05 22:13:04;;;;;;;19.27;2.60;;;4.20;99.90;;;;;;12469168;28;20045;-40
2022/01/05 22:19:06;;;;;;;17.90;2.53;;;4.20;99.90;;;;;;12471794;28;20085;-36
2022/01/05 22:25:08;;;;;;;13.45;2.38;;;4.10;99.90;;;;;;12467647;28;20480;-38
2022/01/05 22:31:10;;;;;;;14.43;2.65;;;4.10;99.90;;;;;;12468091;28;20045;-36
2022/01/05 22:37:12;;;;;;;13.10;2.20;;;4.10;99.90;;;;;;12470915;28;20050;-37
2022/01/05 22:43:14;;;;;;;18.75;3.45;;;4.10;99.90;;;;;;12468897;28;20298;-38
2022/01/05 22:49:25;;;;;;;21.63;3.33;;;4.10;99.90;;;;;;12470399;28;20049;-36
2022/01/05 22:55:27;;;;;;;19.15;3.08;;;4.10;99.90;;;;;;12469264;28;20045;-37
2022/01/05 23:01:30;;;;;;;21.02;2.65;;;4.10;99.90;;;;;;12468391;28;20045;-39
2022/01/05 23:07:37;;;;;;;18.77;3.55;;;4.00;99.90;;;;;;12453436;28;20119;-38
2022/01/05 23:13:39;;;;;;;19.65;2.90;;;4.00;99.90;;;;;;12463268;28;20051;-38
2022/01/05 23:19:41;;;;;;;27.77;3.10;;;4.00;99.90;;;;;;12470451;28;20421;-36
2022/01/05 23:25:43;;;;;;;21.95;2.90;;;4.00;99.90;;;;;;12468180;28;20060;-36
2022/01/05 23:31:45;;;;;;;20.65;2.80;;;3.90;99.90;;;;;;12464027;28;20571;-36
2022/01/05 23:37:48;;;;;;;20.20;2.72;;;3.90;99.90;;;;;;12467920;28;20459;-37
2022/01/05 23:43:50;;;;;;;17.70;1.83;;;3.80;99.90;;;;;;12465424;28;20049;-39
2022/01/05 23:49:52;;;;;;;9.90;1.65;;;3.80;99.90;;;;;;12465558;28;20053;-39
2022/01/05 23:55:55;;;;;;;8.85;1.65;;;3.60;99.90;;;;;;12465501;28;20076;-37
